Time;durP1;ratioP1;P1;durP2;ratioP2;P2;SDS_P1;SDS_P2;PMS_P1;PMS_P2;Temp;Humidity;BMP_temperature;BMP_pressure;BME280_temperature;BME280_humidity;BME280_pressure;Samples;Min_cycle;Max_cycle;Signal;HPM_P1;HPM_P2
2021/12/16 00:09:04;;;;;;;64.75;23.33;;;6.00;99.90;;;;;;5058144;28;20028;-69
2021/12/16 00:31:05;;;;;;;112.73;34.60;;;6.60;99.90;;;;;;5057255;28;20023;-69
2021/12/16 00:33:35;;;;;;;99.30;33.38;;;6.80;99.90;;;;;;5055852;28;20025;-69
2021/12/16 00:36:07;;;;;;;101.72;33.38;;;7.00;99.90;;;;;;5057339;28;20083;-69
2021/12/16 00:38:35;;;;;;;88.72;30.80;;;7.10;99.90;;;;;;5057688;28;20033;-69
2021/12/16 00:41:04;;;;;;;90.18;31.55;;;7.10;99.90;;;;;;5073241;28;20124;-69
2021/12/16 00:43:50;;;;;;;91.35;33.05;;;7.20;99.90;;;;;;5057890;28;20030;-69
2021/12/16 00:46:55;;;;;;;82.67;31.40;;;7.20;99.90;;;;;;5057581;28;20032;-69
2021/12/16 00:49:34;;;;;;;82.72;31.73;;;7.20;99.90;;;;;;5057459;28;20021;-69
2021/12/16 00:54:59;;;;;;;74.85;29.02;;;7.20;99.90;;;;;;5057511;28;20028;-69
2021/12/16 00:57:27;;;;;;;79.40;30.80;;;7.20;99.90;;;;;;5056741;28;20013;-69
2021/12/16 00:59:56;;;;;;;75.75;28.67;;;7.20;99.90;;;;;;5056688;28;20064;-69
2021/12/16 01:02:43;;;;;;;81.18;29.35;;;7.10;99.90;;;;;;5056408;28;20421;-69
2021/12/16 01:08:23;;;;;;;78.00;31.33;;;7.10;99.90;;;;;;5057033;28;20092;-69
2021/12/16 01:36:13;;;;;;;74.57;27.75;;;6.30;99.90;;;;;;5061709;28;20028;-69
2021/12/16 01:55:03;;;;;;;81.43;30.73;;;5.70;99.90;;;;;;5059824;28;20104;-69
2021/12/16 01:57:39;;;;;;;83.38;28.60;;;5.70;99.90;;;;;;5060062;28;20025;-69
2021/12/16 02:00:25;;;;;;;85.60;30.60;;;5.60;99.90;;;;;;5060366;28;20363;-70
2021/12/16 02:02:59;;;;;;;;;;;5.50;99.90;;;;;;5061421;28;20051;-69
2021/12/16 02:05:56;;;;;;;80.90;27.63;;;5.40;99.90;;;;;;5060737;28;19905;-69
2021/12/16 02:08:28;;;;;;;82.55;28.75;;;5.40;99.90;;;;;;5060351;28;20086;-69
2021/12/16 02:30:30;;;;;;;93.45;31.17;;;5.30;99.90;;;;;;5059331;28;20037;-69
2021/12/16 02:35:32;;;;;;;90.25;27.13;;;5.40;99.90;;;;;;5059138;28;20452;-69
2021/12/16 02:38:03;;;;;;;107.82;31.55;;;5.40;99.90;;;;;;5058718;28;20031;-69
2021/12/16 02:40:33;;;;;;;98.05;30.33;;;5.50;99.90;;;;;;5059284;28;20051;-69
2021/12/16 02:43:54;;;;;;;91.97;29.63;;;5.50;99.90;;;;;;5059541;28;20102;-70
2021/12/16 02:48:43;;;;;;;74.97;23.10;;;5.50;99.90;;;;;;5059316;28;20058;-69
2021/12/16 02:51:18;;;;;;;93.15;29.85;;;5.50;99.90;;;;;;5059747;28;20270;-69
2021/12/16 02:53:52;;;;;;;92.90;30.00;;;5.40;99.90;;;;;;5074994;28;20048;-69
2021/12/16 02:56:19;;;;;;;102.13;30.60;;;5.40;99.90;;;;;;5059613;28;20138;-69
2021/12/16 02:58:52;;;;;;;105.18;30.77;;;5.40;99.90;;;;;;5060039;28;20048;-69
2021/12/16 03:01:40;;;;;;;99.97;30.58;;;5.30;99.90;;;;;;5059657;28;20033;-69
2021/12/16 03:04:12;;;;;;;100.90;30.30;;;5.40;99.90;;;;;;5059759;28;20036;-69
2021/12/16 03:06:44;;;;;;;103.70;32.17;;;5.40;99.90;;;;;;5058727;28;20028;-69
2021/12/16 03:09:15;;;;;;;112.75;32.47;;;5.40;99.90;;;;;;5058453;28;20413;-69
2021/12/16 03:11:55;;;;;;;116.40;32.22;;;5.30;99.90;;;;;;5058473;28;20028;-69
2021/12/16 03:14:39;;;;;;;108.00;31.67;;;5.30;99.90;;;;;;5058369;28;20045;-69
2021/12/16 03:17:17;;;;;;;117.45;32.75;;;5.30;99.90;;;;;;5058787;28;20104;-69
2021/12/16 03:25:20;;;;;;;103.82;31.88;;;5.20;99.90;;;;;;5057764;28;20036;-69
2021/12/16 03:38:15;;;;;;;149.63;38.60;;;5.40;99.90;;;;;;5059133;28;20025;-69
2021/12/16 03:40:42;;;;;;;132.77;35.22;;;5.50;99.90;;;;;;5058763;28;20029;-69
2021/12/16 03:43:19;;;;;;;156.68;39.30;;;5.60;99.90;;;;;;5058956;28;20580;-69
2021/12/16 03:48:45;;;;;;;151.55;42.03;;;6.00;99.90;;;;;;5057314;28;19962;-69
2021/12/16 03:51:18;;;;;;;138.13;35.97;;;6.20;99.90;;;;;;5057461;28;20032;-69
2021/12/16 03:53:50;;;;;;;160.90;39.20;;;6.40;99.90;;;;;;5057553;28;20053;-69
2021/12/16 03:56:19;;;;;;;144.05;37.85;;;6.50;99.90;;;;;;5057540;28;20021;-69
2021/12/16 03:58:47;;;;;;;151.60;39.47;;;6.60;99.90;;;;;;5057420;28;20053;-69
2021/12/16 04:01:20;;;;;;;142.18;37.72;;;6.80;99.90;;;;;;5056435;28;20420;-69
2021/12/16 04:03:49;;;;;;;118.53;37.10;;;6.80;99.90;;;;;;5057886;28;20103;-69
2021/12/16 04:06:21;;;;;;;121.65;35.65;;;6.90;99.90;;;;;;5056396;28;20112;-69
2021/12/16 04:08:49;;;;;;;124.20;34.40;;;6.90;99.90;;;;;;5057360;28;20475;-69
2021/12/16 04:11:27;;;;;;;130.00;35.17;;;7.00;99.90;;;;;;5058158;28;20040;-69
2021/12/16 04:13:58;;;;;;;122.65;35.47;;;7.10;99.90;;;;;;5058634;28;20029;-69
2021/12/16 04:16:38;;;;;;;111.40;33.88;;;7.10;99.90;;;;;;5057889;28;20021;-69
2021/12/16 04:19:13;;;;;;;106.85;32.55;;;7.20;99.90;;;;;;5058078;28;20025;-69
2021/12/16 04:21:55;;;;;;;98.53;31.97;;;7.20;99.90;;;;;;5057962;28;20150;-69
2021/12/16 04:24:22;;;;;;;96.95;30.35;;;7.30;99.90;;;;;;5057900;28;20426;-69
2021/12/16 04:26:52;;;;;;;84.55;29.00;;;7.30;99.90;;;;;;5057915;28;20039;-69
2021/12/16 04:29:22;;;;;;;88.03;31.98;;;7.30;99.90;;;;;;5057199;28;20016;-69
2021/12/16 04:31:52;;;;;;;80.32;30.52;;;7.40;99.90;;;;;;5056857;28;20036;-69
2021/12/16 04:34:20;;;;;;;79.78;29.15;;;7.40;99.90;;;;;;5057343;28;20036;-69
2021/12/16 04:36:49;;;;;;;75.88;29.30;;;7.40;99.90;;;;;;5056799;28;20049;-69
2021/12/16 04:39:22;;;;;;;73.38;28.63;;;7.50;99.90;;;;;;5056742;28;20036;-69
2021/12/16 04:41:52;;;;;;;69.68;26.00;;;7.50;99.90;;;;;;5055658;28;20025;-69
2021/12/16 04:44:21;;;;;;;65.07;24.63;;;7.50;99.90;;;;;;5056745;28;20029;-69
2021/12/16 04:46:49;;;;;;;68.53;26.23;;;7.50;99.90;;;;;;5056673;28;20025;-69
2021/12/16 04:49:17;;;;;;;68.07;27.27;;;7.50;99.90;;;;;;5056578;28;20033;-69
2021/12/16 04:51:50;;;;;;;71.68;26.58;;;7.50;99.90;;;;;;5057510;28;20096;-69
2021/12/16 04:54:19;;;;;;;64.22;26.08;;;7.60;99.90;;;;;;5057371;28;20045;-69
2021/12/16 04:56:48;;;;;;;70.65;26.50;;;7.50;99.90;;;;;;5057434;28;20049;-69
2021/12/16 04:59:18;;;;;;;65.90;27.40;;;7.60;99.90;;;;;;5057435;28;20333;-69
2021/12/16 05:01:50;;;;;;;58.67;23.67;;;7.60;99.90;;;;;;5057549;28;20405;-69
2021/12/16 05:04:18;;;;;;;67.72;26.95;;;7.60;99.90;;;;;;5057556;28;20025;-69
2021/12/16 05:06:46;;;;;;;69.32;26.83;;;7.60;99.90;;;;;;5057895;28;20490;-69
2021/12/16 05:09:30;;;;;;;69.85;27.58;;;7.60;99.90;;;;;;5057231;28;20025;-69
2021/12/16 05:11:58;;;;;;;63.92;26.42;;;7.60;99.90;;;;;;5056521;28;20074;-69
2021/12/16 05:14:26;;;;;;;61.00;26.67;;;7.60;99.90;;;;;;5056736;28;20096;-69
2021/12/16 05:16:53;;;;;;;64.60;26.65;;;7.60;99.90;;;;;;5056341;28;20021;-69
2021/12/16 05:19:23;;;;;;;69.10;27.58;;;7.60;99.90;;;;;;5055940;28;20078;-69
2021/12/16 05:24:12;;;;;;;63.75;25.35;;;7.60;99.90;;;;;;5056301;28;20029;-69
2021/12/16 05:24:42;;;;;;;65.35;27.02;;;7.60;99.90;;;;;;5056244;28;20025;-69
2021/12/16 05:27:10;;;;;;;65.95;25.13;;;7.60;99.90;;;;;;5056269;28;20090;-69
2021/12/16 05:29:38;;;;;;;73.18;28.63;;;7.60;99.90;;;;;;5056207;28;20017;-69
2021/12/16 05:32:07;;;;;;;69.03;26.20;;;7.60;99.90;;;;;;5056751;28;20340;-69
2021/12/16 05:34:34;;;;;;;81.45;28.38;;;7.60;99.90;;;;;;5056750;28;20089;-69
2021/12/16 05:37:04;;;;;;;64.63;24.83;;;7.60;99.90;;;;;;5057093;28;20425;-69
2021/12/16 05:39:33;;;;;;;80.85;28.55;;;7.60;99.90;;;;;;5057322;28;20029;-69
2021/12/16 05:42:01;;;;;;;82.78;29.02;;;7.70;99.90;;;;;;5057525;28;20025;-69
2021/12/16 05:44:29;;;;;;;79.80;30.27;;;7.60;99.90;;;;;;5057057;28;20096;-69
2021/12/16 05:46:57;;;;;;;80.47;28.35;;;7.70;99.90;;;;;;5057489;28;20397;-69
2021/12/16 05:49:25;;;;;;;80.85;29.08;;;7.60;99.90;;;;;;5057326;28;20029;-69
2021/12/16 05:51:52;;;;;;;82.35;29.88;;;7.60;99.90;;;;;;5057518;28;20021;-70
2021/12/16 05:54:22;;;;;;;82.95;29.85;;;7.60;99.90;;;;;;5056021;28;20433;-69
2021/12/16 05:56:50;;;;;;;67.97;24.42;;;7.60;99.90;;;;;;5056517;28;20475;-69
2021/12/16 05:59:18;;;;;;;84.93;28.85;;;7.60;99.90;;;;;;5056338;28;20021;-69
2021/12/16 06:01:48;;;;;;;78.45;26.13;;;7.60;99.90;;;;;;5055903;28;20025;-69
2021/12/16 06:04:15;;;;;;;75.97;26.15;;;7.60;99.90;;;;;;5055914;28;20033;-69
2021/12/16 06:06:43;;;;;;;73.97;25.52;;;7.60;99.90;;;;;;5056203;28;20021;-69
2021/12/16 06:09:11;;;;;;;73.72;26.40;;;7.60;99.90;;;;;;5055907;28;20032;-69
2021/12/16 06:11:42;;;;;;;66.32;24.58;;;7.60;99.90;;;;;;5055906;28;20052;-70
2021/12/16 06:22:55;;;;;;;72.88;24.42;;;7.60;99.90;;;;;;5060578;28;20459;-69
2021/12/16 06:28:09;;;;;;;53.22;20.98;;;7.60;99.90;;;;;;5060620;28;20036;-69
2021/12/16 06:30:41;;;;;;;58.78;21.13;;;7.60;99.90;;;;;;5060143;28;20028;-69
2021/12/16 06:33:11;;;;;;;57.05;19.67;;;7.60;99.90;;;;;;5060346;28;20028;-69
2021/12/16 06:35:40;;;;;;;50.65;20.00;;;7.60;99.90;;;;;;5060035;28;20066;-69
2021/12/16 06:38:08;;;;;;;49.70;18.45;;;7.60;99.90;;;;;;5059268;28;20033;-69
2021/12/16 06:40:36;;;;;;;48.05;18.38;;;7.60;99.90;;;;;;5059044;28;20021;-69
2021/12/16 06:43:06;;;;;;;51.78;19.58;;;7.60;99.90;;;;;;5058896;28;20025;-69
2021/12/16 06:45:38;;;;;;;55.00;18.15;;;7.60;99.90;;;;;;5058968;28;20074;-69
2021/12/16 06:48:12;;;;;;;50.00;18.60;;;7.60;99.90;;;;;;5058984;28;20329;-69
2021/12/16 06:50:56;;;;;;;53.60;19.73;;;7.60;99.90;;;;;;5059209;28;20044;-73
2021/12/16 06:56:24;;;;;;;54.58;19.65;;;7.70;99.90;;;;;;5058768;28;20464;-72
2021/12/16 06:59:19;;;;;;;58.05;21.55;;;7.70;99.90;;;;;;5059476;28;20024;-72
2021/12/16 07:02:02;;;;;;;56.75;21.27;;;7.70;99.90;;;;;;5059799;28;20320;-72
2021/12/16 07:04:30;;;;;;;66.50;20.58;;;7.70;99.90;;;;;;5060363;28;20032;-72
2021/12/16 07:06:58;;;;;;;62.38;24.10;;;7.70;99.90;;;;;;5059433;28;20025;-72
2021/12/16 07:09:26;;;;;;;69.38;21.85;;;7.70;99.90;;;;;;5059919;28;20077;-72
2021/12/16 07:11:57;;;;;;;63.05;22.02;;;7.70;99.90;;;;;;5059483;28;20025;-72
2021/12/16 07:14:38;;;;;;;63.88;22.95;;;7.70;99.90;;;;;;5059573;28;20021;-69
2021/12/16 07:17:16;;;;;;;60.05;22.13;;;7.70;99.90;;;;;;5059225;28;20096;-70
2021/12/16 07:19:45;;;;;;;68.45;23.27;;;7.70;99.90;;;;;;5074495;28;20428;-70
2021/12/16 07:22:14;;;;;;;59.20;21.08;;;7.70;99.90;;;;;;5073963;28;20072;-70
2021/12/16 07:24:41;;;;;;;66.45;21.02;;;7.70;99.90;;;;;;5057041;28;20136;-70
2021/12/16 07:27:09;;;;;;;61.33;21.98;;;7.70;99.90;;;;;;5058218;28;20021;-70
2021/12/16 07:29:37;;;;;;;58.67;20.92;;;7.70;99.90;;;;;;5058112;28;20028;-70
2021/12/16 07:32:05;;;;;;;61.10;21.65;;;7.70;99.90;;;;;;5058684;28;20031;-70
2021/12/16 07:34:34;;;;;;;72.63;22.30;;;7.70;99.90;;;;;;5059729;28;20320;-70
2021/12/16 07:37:04;;;;;;;60.58;21.83;;;7.70;99.90;;;;;;5058555;28;20025;-70
2021/12/16 07:39:38;;;;;;;66.38;21.95;;;7.70;99.90;;;;;;5058075;28;20017;-70
2021/12/16 07:42:08;;;;;;;76.40;24.60;;;7.70;99.90;;;;;;5058058;28;20057;-70
2021/12/16 07:44:36;;;;;;;68.85;22.38;;;7.70;99.90;;;;;;5058737;28;20372;-70
2021/12/16 07:47:10;;;;;;;67.85;21.63;;;7.70;99.90;;;;;;5058750;28;20021;-70
2021/12/16 07:49:42;;;;;;;69.82;23.48;;;7.70;99.90;;;;;;5059480;28;20079;-70
2021/12/16 07:52:18;;;;;;;72.20;23.35;;;7.70;99.90;;;;;;5058401;28;20317;-70
2021/12/16 07:54:46;;;;;;;75.55;24.05;;;7.70;99.90;;;;;;5059091;28;20036;-69
2021/12/16 07:57:14;;;;;;;70.20;22.63;;;7.70;99.90;;;;;;5058576;28;20100;-70
2021/12/16 07:59:42;;;;;;;70.65;24.60;;;7.70;99.90;;;;;;5058761;28;20124;-70
2021/12/16 08:02:11;;;;;;;69.65;23.55;;;7.70;99.90;;;;;;5058139;28;20095;-70
2021/12/16 08:04:43;;;;;;;78.68;23.75;;;7.70;99.90;;;;;;5058256;28;20051;-70
2021/12/16 08:07:14;;;;;;;74.40;24.42;;;7.70;99.90;;;;;;5057420;28;20320;-70
2021/12/16 08:09:42;;;;;;;78.72;26.50;;;7.70;99.90;;;;;;5057375;28;20025;-70
2021/12/16 08:12:16;;;;;;;79.72;24.23;;;7.70;99.90;;;;;;5057457;28;20029;-70
2021/12/16 08:14:45;;;;;;;84.05;26.35;;;7.70;99.90;;;;;;5057931;28;20334;-70
2021/12/16 08:17:14;;;;;;;74.15;25.65;;;7.70;99.90;;;;;;5057827;28;20151;-70
2021/12/16 08:19:45;;;;;;;74.95;24.98;;;7.80;99.90;;;;;;5057365;28;20025;-70
2021/12/16 08:22:14;;;;;;;83.07;28.25;;;7.70;99.90;;;;;;5057438;28;20025;-70
2021/12/16 08:24:41;;;;;;;79.03;26.17;;;7.80;99.90;;;;;;5057298;28;20338;-70
2021/12/16 08:27:10;;;;;;;89.07;27.42;;;7.80;99.90;;;;;;5058017;28;20100;-70
2021/12/16 08:29:38;;;;;;;88.47;26.08;;;7.80;99.90;;;;;;5056974;28;20029;-70
2021/12/16 08:32:07;;;;;;;87.28;25.52;;;7.80;99.90;;;;;;5058941;28;20028;-70
2021/12/16 08:34:37;;;;;;;93.40;30.48;;;7.80;99.90;;;;;;5073564;28;20048;-70
2021/12/16 08:37:09;;;;;;;103.93;27.60;;;7.80;99.90;;;;;;5057482;28;20047;-69
2021/12/16 08:39:37;;;;;;;95.15;27.58;;;7.80;99.90;;;;;;5057943;28;20028;-70
2021/12/16 08:42:09;;;;;;;103.60;29.15;;;7.80;99.90;;;;;;5057746;28;20421;-70
2021/12/16 08:44:38;;;;;;;96.97;28.50;;;7.80;99.90;;;;;;5057821;28;20025;-70
2021/12/16 08:47:13;;;;;;;104.50;28.63;;;7.90;99.90;;;;;;5056707;28;20051;-70
2021/12/16 08:49:41;;;;;;;79.28;24.60;;;7.90;99.90;;;;;;5055705;28;20029;-70
2021/12/16 08:52:14;;;;;;;91.38;29.30;;;7.90;99.90;;;;;;5056989;28;20079;-70
2021/12/16 08:54:43;;;;;;;84.35;25.83;;;7.90;99.90;;;;;;5056605;28;20017;-70
2021/12/16 08:57:11;;;;;;;92.25;29.15;;;7.90;99.90;;;;;;5056613;28;20079;-70
2021/12/16 08:59:40;;;;;;;86.70;25.13;;;7.90;99.90;;;;;;5056519;28;20029;-70
2021/12/16 09:02:07;;;;;;;85.80;27.60;;;8.00;99.90;;;;;;5056565;28;20043;-70
2021/12/16 09:04:36;;;;;;;84.47;26.95;;;8.00;99.90;;;;;;5056845;28;20452;-70
2021/12/16 09:07:09;;;;;;;77.10;26.73;;;8.00;99.90;;;;;;5056578;28;20033;-70
2021/12/16 09:09:38;;;;;;;81.15;26.98;;;8.00;99.90;;;;;;5057132;28;20082;-70
2021/12/16 09:12:36;;;;;;;89.80;26.17;;;8.00;99.90;;;;;;5057384;28;20024;-70
2021/12/16 09:15:08;;;;;;;90.05;27.40;;;8.00;99.90;;;;;;5057201;28;20502;-70
2021/12/16 09:17:36;;;;;;;85.05;28.45;;;8.00;99.90;;;;;;5057272;28;20074;-68
2021/12/16 09:20:06;;;;;;;83.35;27.95;;;8.00;99.90;;;;;;5057813;28;20313;-69
2021/12/16 09:22:35;;;;;;;77.50;25.10;;;8.00;99.90;;;;;;5057301;28;20074;-70
2021/12/16 09:25:05;;;;;;;85.35;27.20;;;8.10;99.90;;;;;;5057338;28;20416;-70
2021/12/16 09:27:33;;;;;;;84.78;27.27;;;8.00;99.90;;;;;;5056830;28;20029;-71
2021/12/16 09:30:01;;;;;;;75.00;25.77;;;8.10;99.90;;;;;;5056769;28;20025;-70
2021/12/16 09:32:30;;;;;;;83.35;26.67;;;8.10;99.90;;;;;;5056175;28;20024;-70
2021/12/16 09:34:59;;;;;;;75.75;25.48;;;8.10;99.90;;;;;;5056629;28;20025;-70
2021/12/16 09:37:26;;;;;;;89.05;26.40;;;8.10;99.90;;;;;;5056173;28;20025;-69
2021/12/16 09:39:54;;;;;;;77.80;25.55;;;8.20;99.90;;;;;;5056076;28;20124;-69
2021/12/16 09:42:24;;;;;;;87.65;26.95;;;8.20;99.90;;;;;;5055039;28;20031;-70
2021/12/16 09:44:55;;;;;;;81.80;25.55;;;8.20;99.90;;;;;;5055695;28;20053;-69
2021/12/16 09:47:23;;;;;;;77.60;25.75;;;8.20;99.90;;;;;;5056803;28;20067;-70
2021/12/16 09:49:51;;;;;;;73.78;25.35;;;8.30;99.90;;;;;;5059389;28;20048;-69
2021/12/16 09:52:19;;;;;;;75.38;23.77;;;8.20;99.90;;;;;;5061130;28;20020;-71
2021/12/16 09:54:46;;;;;;;79.80;25.73;;;8.30;99.90;;;;;;5060952;28;20028;-69
2021/12/16 09:57:16;;;;;;;72.93;26.13;;;8.30;99.90;;;;;;5059739;28;20416;-70
2021/12/16 09:59:44;;;;;;;80.43;26.63;;;8.30;99.90;;;;;;5061055;28;20033;-70
2021/12/16 10:02:17;;;;;;;79.05;26.80;;;8.30;99.90;;;;;;5060721;28;20108;-70
2021/12/16 10:04:45;;;;;;;76.53;25.20;;;8.30;99.90;;;;;;5076424;28;20116;-70
2021/12/16 10:07:21;;;;;;;76.13;26.73;;;8.30;99.90;;;;;;5060594;28;20048;-70
2021/12/16 10:09:51;;;;;;;78.30;26.17;;;8.40;99.90;;;;;;5060575;28;20029;-69
2021/12/16 10:12:25;;;;;;;74.75;23.25;;;8.40;99.90;;;;;;5059488;28;20041;-69
2021/12/16 10:15:04;;;;;;;77.88;25.00;;;8.40;99.90;;;;;;5058591;28;20075;-70
2021/12/16 10:17:41;;;;;;;68.53;23.35;;;8.50;99.90;;;;;;5059310;28;20028;-70
2021/12/16 10:20:26;;;;;;;75.72;25.55;;;8.50;99.90;;;;;;5060171;28;20079;-70
2021/12/16 10:23:08;;;;;;;71.28;25.67;;;8.50;99.90;;;;;;5059268;28;20460;-70
2021/12/16 10:25:42;;;;;;;67.63;23.20;;;8.60;99.90;;;;;;5059841;28;20048;-70
2021/12/16 10:28:10;;;;;;;79.20;25.70;;;8.50;99.90;;;;;;5059558;28;20419;-69
2021/12/16 10:30:52;;;;;;;77.95;23.70;;;8.50;99.90;;;;;;5059816;28;20048;-70
2021/12/16 10:33:29;;;;;;;73.97;25.48;;;8.50;99.90;;;;;;5059628;28;20028;-69
2021/12/16 10:36:15;;;;;;;82.13;26.73;;;8.50;99.90;;;;;;5060640;28;20096;-69
2021/12/16 10:38:56;;;;;;;74.57;25.80;;;8.50;99.90;;;;;;5075637;28;20032;-70
2021/12/16 10:41:32;;;;;;;84.85;26.42;;;8.50;99.90;;;;;;5060022;28;20029;-70
2021/12/16 10:44:20;;;;;;;79.40;23.83;;;8.50;99.90;;;;;;5060174;28;20134;-70
2021/12/16 10:47:05;;;;;;;80.28;26.67;;;8.50;99.90;;;;;;5060128;28;20025;-70
2021/12/16 10:49:52;;;;;;;78.78;26.05;;;8.50;99.90;;;;;;5059784;28;20039;-70
2021/12/16 10:52:26;;;;;;;81.80;25.98;;;8.50;99.90;;;;;;5059580;28;20312;-70
2021/12/16 10:54:57;;;;;;;74.63;23.35;;;8.50;99.90;;;;;;5059103;28;20032;-70
2021/12/16 10:57:30;;;;;;;78.43;25.75;;;8.40;99.90;;;;;;5058787;28;20079;-68
2021/12/16 11:00:08;;;;;;;73.05;25.23;;;8.40;99.90;;;;;;5058424;28;20059;-68
2021/12/16 11:02:39;;;;;;;77.22;25.60;;;8.50;99.90;;;;;;5059142;28;20029;-68
2021/12/16 11:05:19;;;;;;;74.95;25.23;;;8.50;99.90;;;;;;5058755;28;20017;-70
2021/12/16 11:07:49;;;;;;;71.30;24.40;;;8.50;99.90;;;;;;5057334;28;20439;-70
2021/12/16 11:10:18;;;;;;;69.63;27.15;;;8.50;99.90;;;;;;5058700;28;20404;-70
2021/12/16 11:12:55;;;;;;;76.55;25.67;;;8.50;99.90;;;;;;5059036;28;20098;-69
2021/12/16 11:15:37;;;;;;;76.15;26.92;;;8.50;99.90;;;;;;5058829;28;20143;-70
2021/12/16 11:18:13;;;;;;;65.15;23.33;;;8.50;99.90;;;;;;5059893;28;20070;-69
2021/12/16 11:20:46;;;;;;;67.80;22.60;;;8.40;99.90;;;;;;5059274;28;20032;-69
2021/12/16 11:23:26;;;;;;;62.15;21.15;;;8.50;99.90;;;;;;5059633;28;20062;-69
2021/12/16 11:26:00;;;;;;;62.50;21.65;;;8.50;99.90;;;;;;5059260;28;20017;-70
2021/12/16 11:28:46;;;;;;;61.72;20.60;;;8.50;99.90;;;;;;5059171;28;20013;-70
2021/12/16 11:31:23;;;;;;;61.25;22.75;;;8.60;99.90;;;;;;5058967;28;20104;-69
2021/12/16 11:34:04;;;;;;;60.22;23.27;;;8.60;99.90;;;;;;5059349;28;20411;-69
2021/12/16 11:36:43;;;;;;;58.55;20.38;;;8.60;99.90;;;;;;5057996;28;20048;-69
2021/12/16 11:39:16;;;;;;;;;;;8.60;99.90;;;;;;5058486;28;20104;-69
2021/12/16 11:41:54;;;;;;;53.53;19.52;;;8.60;99.90;;;;;;5058231;28;20189;-69
2021/12/16 11:44:33;;;;;;;57.47;19.05;;;8.60;99.90;;;;;;5058111;28;20031;-69
2021/12/16 11:47:04;;;;;;;49.67;18.88;;;8.60;99.90;;;;;;5057957;28;20029;-69
2021/12/16 11:49:41;;;;;;;45.28;18.95;;;8.70;99.90;;;;;;5057840;28;20021;-69
2021/12/16 11:52:20;;;;;;;47.65;18.85;;;8.70;99.90;;;;;;5057299;28;20075;-70
2021/12/16 11:54:56;;;;;;;44.33;16.70;;;8.70;99.90;;;;;;5073384;28;20302;-69
2021/12/16 11:57:30;;;;;;;45.55;17.15;;;8.70;99.90;;;;;;5058294;28;20052;-69
2021/12/16 12:00:15;;;;;;;40.80;16.20;;;8.70;99.90;;;;;;5058575;28;20041;-69
2021/12/16 12:02:44;;;;;;;45.88;16.52;;;8.70;99.90;;;;;;5058452;28;20021;-69
2021/12/16 12:05:31;;;;;;;44.35;16.50;;;8.80;99.90;;;;;;5058391;28;20033;-69
2021/12/16 12:08:11;;;;;;;38.63;16.55;;;8.80;99.90;;;;;;5058375;28;20033;-69
2021/12/16 12:10:45;;;;;;;35.65;16.77;;;8.80;99.90;;;;;;5057596;28;20036;-69
2021/12/16 12:13:21;;;;;;;40.42;16.25;;;8.90;99.90;;;;;;5058176;28;20429;-69
2021/12/16 12:16:23;;;;;;;38.05;15.15;;;9.00;99.90;;;;;;5058292;28;20032;-69
2021/12/16 12:18:58;;;;;;;38.45;15.63;;;9.10;99.90;;;;;;5057494;28;20029;-69
2021/12/16 12:21:34;;;;;;;38.92;15.77;;;9.10;99.90;;;;;;5072628;28;20021;-70
2021/12/16 12:24:17;;;;;;;33.88;14.75;;;9.10;99.90;;;;;;5057622;28;20028;-69
2021/12/16 12:27:01;;;;;;;35.42;15.95;;;9.10;99.90;;;;;;5055962;28;20355;-69
2021/12/16 12:29:33;;;;;;;41.88;16.17;;;9.10;99.90;;;;;;5057175;28;20106;-69
2021/12/16 12:32:14;;;;;;;45.03;17.05;;;9.10;99.90;;;;;;5057477;28;20017;-69
2021/12/16 12:34:45;;;;;;;45.20;16.50;;;9.10;99.90;;;;;;5057150;28;20020;-68
2021/12/16 12:37:19;;;;;;;43.83;17.35;;;9.10;99.90;;;;;;5057100;28;20348;-69
2021/12/16 12:39:52;;;;;;;43.92;18.08;;;9.10;99.90;;;;;;5056951;28;20020;-68
2021/12/16 12:42:20;;;;;;;40.03;17.52;;;9.00;99.90;;;;;;5056639;28;20052;-69
2021/12/16 12:44:48;;;;;;;38.15;16.63;;;9.00;99.90;;;;;;5073297;28;20025;-70
2021/12/16 12:47:26;;;;;;;40.28;18.00;;;9.00;99.90;;;;;;5057502;28;20036;-70
2021/12/16 12:50:07;;;;;;;42.67;15.98;;;9.10;99.90;;;;;;5056747;28;20028;-70
2021/12/16 12:52:35;;;;;;;35.80;15.18;;;9.10;99.90;;;;;;5057581;28;20337;-70
2021/12/16 12:55:13;;;;;;;34.90;15.30;;;9.10;99.90;;;;;;5057485;28;20088;-70
2021/12/16 12:57:43;;;;;;;32.20;14.90;;;9.10;99.90;;;;;;5057975;28;20021;-70
2021/12/16 13:00:33;;;;;;;35.92;16.75;;;9.20;99.90;;;;;;5057132;28;20051;-70
2021/12/16 13:03:37;;;;;;;43.53;19.02;;;9.10;99.90;;;;;;5056117;28;20120;-69
2021/12/16 13:06:13;;;;;;;34.65;14.38;;;9.10;99.90;;;;;;5054118;28;20100;-70
2021/12/16 13:08:47;;;;;;;44.65;18.98;;;9.20;99.90;;;;;;5056378;28;20024;-70
2021/12/16 13:11:25;;;;;;;50.83;23.25;;;9.20;99.90;;;;;;5056354;28;20104;-69
2021/12/16 13:28:38;;;;;;;33.95;14.43;;;9.20;99.90;;;;;;5061909;28;20116;-71
2021/12/16 13:31:25;;;;;;;32.00;13.77;;;9.20;99.90;;;;;;5061233;28;20029;-71
2021/12/16 13:33:58;;;;;;;35.80;14.85;;;9.20;99.90;;;;;;5061872;28;20021;-71
2021/12/16 13:36:50;;;;;;;34.75;14.98;;;9.10;99.90;;;;;;5062030;28;20028;-71
2021/12/16 13:39:23;;;;;;;23.23;9.90;;;9.20;99.90;;;;;;5061291;28;20310;-71
2021/12/16 13:42:07;;;;;;;19.55;8.38;;;9.10;99.90;;;;;;5061008;28;20374;-70
2021/12/16 13:44:40;;;;;;;19.88;9.23;;;9.20;99.90;;;;;;5060087;28;20112;-70
2021/12/16 13:47:24;;;;;;;17.73;7.93;;;9.20;99.90;;;;;;5060646;28;20104;-70
2021/12/16 14:10:22;;;;;;;10.38;4.68;;;9.10;99.90;;;;;;5060536;28;20425;-69
2021/12/16 14:25:15;;;;;;;12.23;4.68;;;9.10;99.90;;;;;;5060102;28;20079;-70
2021/12/16 14:47:30;;;;;;;13.77;7.28;;;9.00;99.90;;;;;;5059428;28;20435;-70
2021/12/16 14:49:58;;;;;;;9.13;4.53;;;9.00;99.90;;;;;;5059986;28;20025;-68
2021/12/16 14:52:32;;;;;;;8.35;4.45;;;9.00;99.90;;;;;;5059902;28;20112;-70
2021/12/16 14:55:09;;;;;;;7.22;3.55;;;8.90;99.90;;;;;;5058863;28;20071;-69
2021/12/16 14:57:46;;;;;;;7.85;3.53;;;8.90;99.90;;;;;;5058606;28;20151;-69
2021/12/16 15:00:20;;;;;;;8.35;4.30;;;8.90;99.90;;;;;;5058542;28;20025;-69
2021/12/16 15:02:50;;;;;;;13.23;5.32;;;8.90;99.90;;;;;;5058536;28;20112;-70
2021/12/16 15:05:32;;;;;;;17.58;5.90;;;8.90;99.90;;;;;;5058619;28;20092;-69
2021/12/16 15:08:11;;;;;;;10.38;4.78;;;8.90;99.90;;;;;;5057641;28;20116;-69
2021/12/16 15:10:42;;;;;;;6.57;2.90;;;8.90;99.90;;;;;;5057985;28;20096;-70
2021/12/16 15:13:18;;;;;;;4.95;2.55;;;8.80;99.90;;;;;;5057358;28;20021;-69
2021/12/16 15:16:06;;;;;;;10.20;4.88;;;8.80;99.90;;;;;;5057193;28;20025;-69
2021/12/16 15:34:04;;;;;;;7.60;3.88;;;8.70;99.90;;;;;;5058357;28;20373;-69
2021/12/16 15:38:19;;;;;;;8.00;4.65;;;8.70;99.90;;;;;;5058350;28;20024;-70
2021/12/16 15:42:45;;;;;;;10.63;4.88;;;8.70;99.90;;;;;;5058508;28;20036;-70
2021/12/16 15:43:51;;;;;;;10.02;4.07;;;8.70;99.90;;;;;;5057746;28;20206;-70
2021/12/16 15:46:19;;;;;;;10.02;5.38;;;8.70;99.90;;;;;;5056572;28;20047;-70
2021/12/16 15:48:50;;;;;;;9.30;5.13;;;8.70;99.90;;;;;;5057697;28;20382;-71
2021/12/16 15:51:22;;;;;;;8.75;4.75;;;8.70;99.90;;;;;;5056688;28;20049;-71
2021/12/16 15:53:55;;;;;;;11.15;5.28;;;8.70;99.90;;;;;;4961478;28;2743718;-72
2021/12/16 15:56:30;;;;;;;11.02;5.00;;;8.70;99.90;;;;;;5058599;28;20087;-70
2021/12/16 15:59:02;;;;;;;14.38;5.95;;;8.70;99.90;;;;;;5057743;28;20490;-69
2021/12/16 16:01:40;;;;;;;15.07;6.75;;;8.70;99.90;;;;;;5058080;28;20064;-70
2021/12/16 16:04:16;;;;;;;12.95;7.05;;;8.70;99.90;;;;;;5057513;28;20029;-70
2021/12/16 16:06:54;;;;;;;15.52;6.47;;;8.70;99.90;;;;;;5057462;28;20082;-70
2021/12/16 16:09:22;;;;;;;13.63;6.35;;;8.70;99.90;;;;;;5057446;28;20037;-70
2021/12/16 16:11:55;;;;;;;13.70;6.57;;;8.70;99.90;;;;;;5057834;28;20021;-71
2021/12/16 16:14:28;;;;;;;16.27;6.53;;;8.70;99.90;;;;;;5058333;28;20024;-71
2021/12/16 16:16:58;;;;;;;16.33;6.90;;;8.70;99.90;;;;;;5058188;28;20028;-69
2021/12/16 16:19:34;;;;;;;15.85;6.68;;;8.70;99.90;;;;;;5058512;28;20044;-69
2021/12/16 16:22:04;;;;;;;15.10;6.22;;;8.70;99.90;;;;;;5058183;28;20032;-69
2021/12/16 16:24:35;;;;;;;15.23;7.07;;;8.70;99.90;;;;;;5057990;28;20029;-68
2021/12/16 16:27:10;;;;;;;16.60;6.47;;;8.70;99.90;;;;;;5058024;28;20411;-69
2021/12/16 16:29:40;;;;;;;16.35;6.05;;;8.70;99.90;;;;;;5058949;28;20300;-68
2021/12/16 16:32:08;;;;;;;13.50;5.85;;;8.70;99.90;;;;;;5057996;28;20289;-69
2021/12/16 16:34:48;;;;;;;18.05;7.45;;;8.70;99.90;;;;;;5057176;28;20017;-69
2021/12/16 16:37:33;;;;;;;19.40;9.68;;;8.70;99.90;;;;;;5057503;28;20025;-69
2021/12/16 16:40:12;;;;;;;16.48;7.80;;;8.70;99.90;;;;;;5056824;28;20118;-69
2021/12/16 16:42:43;;;;;;;15.13;6.95;;;8.70;99.90;;;;;;5057147;28;20028;-69
2021/12/16 16:45:23;;;;;;;14.32;6.93;;;8.60;99.90;;;;;;5056890;28;20020;-69
2021/12/16 16:48:03;;;;;;;17.73;9.60;;;8.70;99.90;;;;;;5056666;28;20060;-69